sensor_id;sensor_type;location;lat;lon;timestamp;pressure;altitude;pressure_sealevel;temperature;humidity
11011;BME280;5558;42.702;23.178;2024-03-25T00:02:06;92460.72;;;3.80;100.00
11011;BME280;5558;42.702;23.178;2024-03-25T00:04:32;92418.19;;;3.53;100.00
11011;BME280;5558;42.702;23.178;2024-03-25T00:06:58;92438.97;;;3.74;100.00
11011;BME280;5558;42.702;23.178;2024-03-25T00:09:24;92436.63;;;3.78;100.00
11011;BME280;5558;42.702;23.178;2024-03-25T00:11:51;92428.22;;;3.71;100.00
11011;BME280;5558;42.702;23.178;2024-03-25T00:14:19;92432.59;;;3.60;100.00
11011;BME280;5558;42.702;23.178;2024-03-25T00:16:47;92423.44;;;3.58;100.00
11011;BME280;5558;42.702;23.178;2024-03-25T00:19:13;92414.28;;;3.60;100.00
11011;BME280;5558;42.702;23.178;2024-03-25T00:21:39;92412.56;;;3.76;100.00
11011;BME280;5558;42.702;23.178;2024-03-25T00:24:05;92407.13;;;3.93;100.00
11011;BME280;5558;42.702;23.178;2024-03-25T00:26:33;92402.50;;;4.10;100.00
11011;BME280;5558;42.702;23.178;2024-03-25T00:28:58;92407.53;;;4.26;100.00
11011;BME280;5558;42.702;23.178;2024-03-25T00:31:25;92404.16;;;4.26;100.00
11011;BME280;5558;42.702;23.178;2024-03-25T00:33:52;92407.28;;;4.23;100.00
11011;BME280;5558;42.702;23.178;2024-03-25T00:36:19;92414.88;;;4.24;100.00
11011;BME280;5558;42.702;23.178;2024-03-25T00:38:44;92409.06;;;4.12;100.00
11011;BME280;5558;42.702;23.178;2024-03-25T00:41:11;92419.78;;;4.06;100.00
11011;BME280;5558;42.702;23.178;2024-03-25T00:43:37;92405.31;;;3.93;100.00
11011;BME280;5558;42.702;23.178;2024-03-25T00:46:04;92409.97;;;3.81;100.00
11011;BME280;5558;42.702;23.178;2024-03-25T00:48:29;92416.94;;;3.65;100.00
11011;BME280;5558;42.702;23.178;2024-03-25T00:50:57;92408.53;;;3.58;100.00
11011;BME280;5558;42.702;23.178;2024-03-25T00:53:23;92408.53;;;3.58;100.00
11011;BME280;5558;42.702;23.178;2024-03-25T00:55:49;92396.50;;;3.62;100.00
11011;BME280;5558;42.702;23.178;2024-03-25T00:58:15;92394.63;;;3.53;100.00
11011;BME280;5558;42.702;23.178;2024-03-25T01:00:42;92386.78;;;3.53;100.00
11011;BME280;5558;42.702;23.178;2024-03-25T01:03:07;92387.06;;;3.56;100.00
11011;BME280;5558;42.702;23.178;2024-03-25T01:05:34;92380.28;;;3.60;100.00
11011;BME280;5558;42.702;23.178;2024-03-25T01:08:01;92370.88;;;3.59;100.00
11011;BME280;5558;42.702;23.178;2024-03-25T01:10:29;92362.50;;;3.62;100.00
11011;BME280;5558;42.702;23.178;2024-03-25T01:12:54;92347.44;;;3.80;100.00
11011;BME280;5558;42.702;23.178;2024-03-25T01:15:22;92358.44;;;3.87;100.00
11011;BME280;5558;42.702;23.178;2024-03-25T01:17:48;92354.31;;;3.96;100.00
11011;BME280;5558;42.702;23.178;2024-03-25T01:20:15;92355.66;;;4.08;100.00
11011;BME280;5558;42.702;23.178;2024-03-25T01:22:40;92355.41;;;4.20;100.00
11011;BME280;5558;42.702;23.178;2024-03-25T01:25:09;92337.84;;;4.05;100.00
11011;BME280;5558;42.702;23.178;2024-03-25T01:27:35;92364.31;;;4.14;100.00
11011;BME280;5558;42.702;23.178;2024-03-25T01:30:01;92365.59;;;4.11;100.00
11011;BME280;5558;42.702;23.178;2024-03-25T01:32:29;92368.50;;;4.15;100.00
11011;BME280;5558;42.702;23.178;2024-03-25T01:34:56;92367.72;;;4.14;100.00
11011;BME280;5558;42.702;23.178;2024-03-25T01:37:21;92374.03;;;4.28;100.00
11011;BME280;5558;42.702;23.178;2024-03-25T01:39:48;92379.81;;;4.30;100.00
11011;BME280;5558;42.702;23.178;2024-03-25T01:42:15;92383.97;;;4.26;100.00
11011;BME280;5558;42.702;23.178;2024-03-25T01:44:43;92375.06;;;4.22;100.00
11011;BME280;5558;42.702;23.178;2024-03-25T01:47:08;92374.53;;;4.15;100.00
11011;BME280;5558;42.702;23.178;2024-03-25T01:49:35;92380.81;;;4.09;100.00
11011;BME280;5558;42.702;23.178;2024-03-25T01:52:01;92391.19;;;3.99;100.00
11011;BME280;5558;42.702;23.178;2024-03-25T01:54:28;92403.03;;;4.07;100.00
11011;BME280;5558;42.702;23.178;2024-03-25T01:56:53;92398.53;;;3.92;100.00
11011;BME280;5558;42.702;23.178;2024-03-25T01:59:23;92404.50;;;3.88;100.00
11011;BME280;5558;42.702;23.178;2024-03-25T02:01:49;92399.38;;;3.61;100.00
11011;BME280;5558;42.702;23.178;2024-03-25T02:04:16;92412.16;;;3.52;100.00
11011;BME280;5558;42.702;23.178;2024-03-25T02:06:42;92417.31;;;3.42;100.00
11011;BME280;5558;42.702;23.178;2024-03-25T02:09:12;92412.59;;;3.39;100.00
11011;BME280;5558;42.702;23.178;2024-03-25T02:11:38;92408.59;;;3.32;100.00
11011;BME280;5558;42.702;23.178;2024-03-25T02:14:06;92405.91;;;3.22;100.00
11011;BME280;5558;42.702;23.178;2024-03-25T02:16:33;92394.25;;;3.03;100.00
11011;BME280;5558;42.702;23.178;2024-03-25T02:19:00;92400.50;;;2.97;100.00
11011;BME280;5558;42.702;23.178;2024-03-25T02:21:26;92396.31;;;2.96;100.00
11011;BME280;5558;42.702;23.178;2024-03-25T02:23:55;92385.88;;;2.96;100.00
11011;BME280;5558;42.702;23.178;2024-03-25T02:26:23;92392.69;;;3.02;100.00
11011;BME280;5558;42.702;23.178;2024-03-25T02:28:50;92402.31;;;2.96;100.00
11011;BME280;5558;42.702;23.178;2024-03-25T02:31:16;92403.06;;;2.92;100.00
11011;BME280;5558;42.702;23.178;2024-03-25T02:33:42;92395.22;;;2.92;100.00
11011;BME280;5558;42.702;23.178;2024-03-25T02:36:08;92405.72;;;2.97;100.00
11011;BME280;5558;42.702;23.178;2024-03-25T02:38:35;92404.16;;;2.96;100.00
11011;BME280;5558;42.702;23.178;2024-03-25T02:41:01;92399.13;;;2.89;100.00
11011;BME280;5558;42.702;23.178;2024-03-25T02:43:30;92396.78;;;2.93;100.00
11011;BME280;5558;42.702;23.178;2024-03-25T02:45:56;92406.22;;;2.94;100.00
11011;BME280;5558;42.702;23.178;2024-03-25T02:48:22;92410.09;;;2.91;100.00
11011;BME280;5558;42.702;23.178;2024-03-25T02:50:48;92416.69;;;2.94;100.00
11011;BME280;5558;42.702;23.178;2024-03-25T02:53:15;92427.13;;;2.94;100.00
11011;BME280;5558;42.702;23.178;2024-03-25T02:55:40;92428.19;;;2.98;100.00
11011;BME280;5558;42.702;23.178;2024-03-25T02:58:07;92435.75;;;2.94;100.00
11011;BME280;5558;42.702;23.178;2024-03-25T03:00:34;92432.34;;;2.94;100.00
11011;BME280;5558;42.702;23.178;2024-03-25T03:03:01;92425.53;;;2.93;100.00
11011;BME280;5558;42.702;23.178;2024-03-25T03:05:26;92426.63;;;2.97;100.00
11011;BME280;5558;42.702;23.178;2024-03-25T03:07:53;92427.97;;;2.99;100.00
11011;BME280;5558;42.702;23.178;2024-03-25T03:10:19;92425.56;;;2.98;100.00
11011;BME280;5558;42.702;23.178;2024-03-25T03:12:45;92427.16;;;2.99;100.00
11011;BME280;5558;42.702;23.178;2024-03-25T03:15:12;92419.28;;;2.94;100.00
11011;BME280;5558;42.702;23.178;2024-03-25T03:17:42;92420.56;;;2.91;100.00
11011;BME280;5558;42.702;23.178;2024-03-25T03:20:08;92417.72;;;2.98;100.00
11011;BME280;5558;42.702;23.178;2024-03-25T03:22:35;92425.53;;;2.93;100.00
11011;BME280;5558;42.702;23.178;2024-03-25T03:25:01;92428.41;;;2.91;100.00
11011;BME280;5558;42.702;23.178;2024-03-25T03:27:29;92439.94;;;2.95;100.00
11011;BME280;5558;42.702;23.178;2024-03-25T03:29:55;92447.72;;;2.90;100.00
11011;BME280;5558;42.702;23.178;2024-03-25T03:32:22;92443.06;;;2.92;100.00
11011;BME280;5558;42.702;23.178;2024-03-25T03:34:49;92436.78;;;2.93;100.00
11011;BME280;5558;42.702;23.178;2024-03-25T03:37:16;92435.16;;;2.87;100.00
11011;BME280;5558;42.702;23.178;2024-03-25T03:39:41;92446.88;;;2.85;100.00
11011;BME280;5558;42.702;23.178;2024-03-25T03:42:08;92458.69;;;2.87;100.00
11011;BME280;5558;42.702;23.178;2024-03-25T03:44:34;92455.81;;;2.89;100.00
11011;BME280;5558;42.702;23.178;2024-03-25T03:47:00;92460.75;;;2.85;100.00
11011;BME280;5558;42.702;23.178;2024-03-25T03:49:26;92458.38;;;2.84;100.00
11011;BME280;5558;42.702;23.178;2024-03-25T03:51:54;92462.06;;;2.88;100.00
11011;BME280;5558;42.702;23.178;2024-03-25T03:54:20;92457.09;;;2.86;100.00
11011;BME280;5558;42.702;23.178;2024-03-25T03:56:46;92462.25;;;2.81;100.00
11011;BME280;5558;42.702;23.178;2024-03-25T03:59:12;92469.84;;;2.83;100.00
11011;BME280;5558;42.702;23.178;2024-03-25T04:01:39;92474.81;;;2.84;100.00
11011;BME280;5558;42.702;23.178;2024-03-25T04:04:04;92491.00;;;2.81;100.00
11011;BME280;5558;42.702;23.178;2024-03-25T04:06:31;92495.22;;;2.82;100.00
11011;BME280;5558;42.702;23.178;2024-03-25T04:08:58;92500.91;;;2.79;100.00
11011;BME280;5558;42.702;23.178;2024-03-25T04:11:25;92488.34;;;2.76;100.00
11011;BME280;5558;42.702;23.178;2024-03-25T04:13:50;92477.59;;;2.73;100.00
11011;BME280;5558;42.702;23.178;2024-03-25T04:16:17;92483.56;;;2.68;100.00
11011;BME280;5558;42.702;23.178;2024-03-25T04:18:43;92487.22;;;2.67;100.00
11011;BME280;5558;42.702;23.178;2024-03-25T04:21:12;92497.88;;;2.66;100.00
11011;BME280;5558;42.702;23.178;2024-03-25T04:23:37;92503.91;;;2.66;100.00
11011;BME280;5558;42.702;23.178;2024-03-25T04:26:06;92510.16;;;2.65;100.00
11011;BME280;5558;42.702;23.178;2024-03-25T04:28:33;92503.66;;;2.68;100.00
11011;BME280;5558;42.702;23.178;2024-03-25T04:30:59;92496.38;;;2.70;100.00
11011;BME280;5558;42.702;23.178;2024-03-25T04:33:25;92515.69;;;2.69;100.00
11011;BME280;5558;42.702;23.178;2024-03-25T04:35:51;92519.31;;;2.68;100.00
11011;BME280;5558;42.702;23.178;2024-03-25T04:38:18;92528.19;;;2.67;100.00
11011;BME280;5558;42.702;23.178;2024-03-25T04:40:45;92538.94;;;2.70;100.00
11011;BME280;5558;42.702;23.178;2024-03-25T04:43:13;92548.66;;;2.75;100.00
11011;BME280;5558;42.702;23.178;2024-03-25T04:45:39;92537.06;;;2.66;100.00
11011;BME280;5558;42.702;23.178;2024-03-25T04:48:06;92541.56;;;2.70;100.00
11011;BME280;5558;42.702;23.178;2024-03-25T04:50:32;92542.69;;;2.79;100.00
11011;BME280;5558;42.702;23.178;2024-03-25T04:52:57;92549.47;;;2.75;100.00
11011;BME280;5558;42.702;23.178;2024-03-25T04:55:23;92547.16;;;2.79;100.00
11011;BME280;5558;42.702;23.178;2024-03-25T04:57:49;92547.00;;;2.90;100.00
11011;BME280;5558;42.702;23.178;2024-03-25T05:00:17;92552.53;;;2.94;100.00
11011;BME280;5558;42.702;23.178;2024-03-25T05:02:42;92558.31;;;2.96;100.00
11011;BME280;5558;42.702;23.178;2024-03-25T05:05:08;92545.19;;;2.91;100.00
11011;BME280;5558;42.702;23.178;2024-03-25T05:07:34;92559.19;;;3.06;100.00
11011;BME280;5558;42.702;23.178;2024-03-25T05:10:00;92548.75;;;3.06;100.00
11011;BME280;5558;42.702;23.178;2024-03-25T05:12:25;92550.59;;;3.06;100.00
11011;BME280;5558;42.702;23.178;2024-03-25T05:14:52;92553.75;;;3.08;100.00
11011;BME280;5558;42.702;23.178;2024-03-25T05:17:19;92559.75;;;3.08;100.00
11011;BME280;5558;42.702;23.178;2024-03-25T05:19:44;92550.09;;;3.09;100.00
11011;BME280;5558;42.702;23.178;2024-03-25T05:22:10;92549.63;;;3.17;100.00
11011;BME280;5558;42.702;23.178;2024-03-25T05:24:36;92559.59;;;3.20;100.00
11011;BME280;5558;42.702;23.178;2024-03-25T05:27:02;92566.81;;;3.08;100.00
11011;BME280;5558;42.702;23.178;2024-03-25T05:29:28;92579.69;;;3.14;100.00
11011;BME280;5558;42.702;23.178;2024-03-25T05:31:58;92576.88;;;3.21;100.00
11011;BME280;5558;42.702;23.178;2024-03-25T05:34:26;92578.94;;;3.19;100.00
11011;BME280;5558;42.702;23.178;2024-03-25T05:36:52;92579.34;;;3.32;100.00
11011;BME280;5558;42.702;23.178;2024-03-25T05:39:17;92586.38;;;3.32;100.00
11011;BME280;5558;42.702;23.178;2024-03-25T05:41:43;92590.28;;;3.29;100.00
11011;BME280;5558;42.702;23.178;2024-03-25T05:44:09;92593.56;;;3.41;100.00
11011;BME280;5558;42.702;23.178;2024-03-25T05:46:35;92600.50;;;3.57;100.00
11011;BME280;5558;42.702;23.178;2024-03-25T05:49:04;92611.53;;;4.69;100.00
11011;BME280;5558;42.702;23.178;2024-03-25T05:51:31;92618.25;;;6.19;100.00
11011;BME280;5558;42.702;23.178;2024-03-25T05:53:57;92614.69;;;7.73;100.00
11011;BME280;5558;42.702;23.178;2024-03-25T05:56:23;92613.28;;;8.29;100.00
11011;BME280;5558;42.702;23.178;2024-03-25T05:58:48;92626.03;;;8.12;100.00
11011;BME280;5558;42.702;23.178;2024-03-25T06:01:14;92617.50;;;7.32;100.00
11011;BME280;5558;42.702;23.178;2024-03-25T06:03:40;92632.94;;;6.70;100.00
11011;BME280;5558;42.702;23.178;2024-03-25T06:06:06;92635.06;;;6.68;100.00
11011;BME280;5558;42.702;23.178;2024-03-25T06:08:33;92636.66;;;7.48;100.00
11011;BME280;5558;42.702;23.178;2024-03-25T06:11:02;92630.31;;;7.59;100.00
11011;BME280;5558;42.702;23.178;2024-03-25T06:13:28;92639.69;;;7.16;100.00
11011;BME280;5558;42.702;23.178;2024-03-25T06:15:54;92624.16;;;7.20;100.00
11011;BME280;5558;42.702;23.178;2024-03-25T06:18:19;92636.53;;;7.73;99.98
11011;BME280;5558;42.702;23.178;2024-03-25T06:20:45;92640.75;;;8.18;95.61
11011;BME280;5558;42.702;23.178;2024-03-25T06:23:21;92628.94;;;8.49;85.72
11011;BME280;5558;42.702;23.178;2024-03-25T06:25:49;92650.81;;;9.07;82.61
11011;BME280;5558;42.702;23.178;2024-03-25T06:28:15;92648.44;;;8.82;80.55
11011;BME280;5558;42.702;23.178;2024-03-25T06:30:41;92648.00;;;7.49;91.07
11011;BME280;5558;42.702;23.178;2024-03-25T06:33:25;92660.84;;;6.66;100.00
11011;BME280;5558;42.702;23.178;2024-03-25T06:36:08;92647.59;;;7.11;100.00
11011;BME280;5558;42.702;23.178;2024-03-25T06:38:34;92676.06;;;8.60;97.10
11011;BME280;5558;42.702;23.178;2024-03-25T06:41:01;92684.38;;;9.77;80.85
11011;BME280;5558;42.702;23.178;2024-03-25T06:43:27;92678.47;;;9.85;67.98
11011;BME280;5558;42.702;23.178;2024-03-25T06:45:53;92675.53;;;9.86;67.83
11011;BME280;5558;42.702;23.178;2024-03-25T06:48:19;92678.16;;;10.66;65.57
11011;BME280;5558;42.702;23.178;2024-03-25T06:50:52;92698.66;;;10.18;65.22
11011;BME280;5558;42.702;23.178;2024-03-25T06:53:18;92702.69;;;10.53;65.16
11011;BME280;5558;42.702;23.178;2024-03-25T06:55:51;92701.63;;;10.35;66.13
11011;BME280;5558;42.702;23.178;2024-03-25T06:58:18;92702.09;;;10.19;67.00
11011;BME280;5558;42.702;23.178;2024-03-25T07:00:44;92698.38;;;9.54;63.27
11011;BME280;5558;42.702;23.178;2024-03-25T07:03:10;92705.31;;;9.50;66.80
11011;BME280;5558;42.702;23.178;2024-03-25T07:05:35;92703.00;;;9.43;66.03
11011;BME280;5558;42.702;23.178;2024-03-25T07:08:01;92711.91;;;9.24;69.69
11011;BME280;5558;42.702;23.178;2024-03-25T07:10:27;92712.09;;;9.56;67.25
11011;BME280;5558;42.702;23.178;2024-03-25T07:12:53;92708.50;;;9.23;73.98
11011;BME280;5558;42.702;23.178;2024-03-25T07:15:20;92722.47;;;8.61;70.49
11011;BME280;5558;42.702;23.178;2024-03-25T07:17:46;92719.50;;;8.68;73.72
11011;BME280;5558;42.702;23.178;2024-03-25T07:20:12;92729.16;;;8.83;78.35
11011;BME280;5558;42.702;23.178;2024-03-25T07:22:37;92729.63;;;8.90;75.54
11011;BME280;5558;42.702;23.178;2024-03-25T07:25:04;92732.88;;;9.10;77.12
11011;BME280;5558;42.702;23.178;2024-03-25T07:27:29;92722.41;;;9.00;72.34
11011;BME280;5558;42.702;23.178;2024-03-25T07:29:55;92730.00;;;8.73;69.75
11011;BME280;5558;42.702;23.178;2024-03-25T07:32:22;92724.69;;;8.44;77.44
11011;BME280;5558;42.702;23.178;2024-03-25T07:34:48;92726.13;;;8.66;77.46
11011;BME280;5558;42.702;23.178;2024-03-25T07:37:14;92727.75;;;8.56;74.55
11011;BME280;5558;42.702;23.178;2024-03-25T07:39:39;92727.50;;;8.58;74.92
11011;BME280;5558;42.702;23.178;2024-03-25T07:42:05;92728.38;;;8.82;75.08
11011;BME280;5558;42.702;23.178;2024-03-25T07:44:32;92725.34;;;8.65;79.87
11011;BME280;5558;42.702;23.178;2024-03-25T07:46:57;92728.50;;;8.67;79.77
11011;BME280;5558;42.702;23.178;2024-03-25T07:49:24;92728.63;;;8.47;82.00
11011;BME280;5558;42.702;23.178;2024-03-25T07:51:50;92731.56;;;8.45;79.53
11011;BME280;5558;42.702;23.178;2024-03-25T07:54:16;92731.66;;;8.15;80.07
11011;BME280;5558;42.702;23.178;2024-03-25T07:56:41;92729.97;;;7.86;83.28
11011;BME280;5558;42.702;23.178;2024-03-25T07:59:07;92738.47;;;8.31;87.36
11011;BME280;5558;42.702;23.178;2024-03-25T08:01:33;92744.94;;;8.54;77.73
11011;BME280;5558;42.702;23.178;2024-03-25T08:03:59;92751.25;;;8.53;74.49
11011;BME280;5558;42.702;23.178;2024-03-25T08:06:26;92744.56;;;8.27;74.72
11011;BME280;5558;42.702;23.178;2024-03-25T08:08:52;92744.13;;;8.05;75.36
11011;BME280;5558;42.702;23.178;2024-03-25T08:11:17;92754.66;;;8.05;78.45
11011;BME280;5558;42.702;23.178;2024-03-25T08:13:43;92754.06;;;8.18;78.30
11011;BME280;5558;42.702;23.178;2024-03-25T08:16:09;92750.28;;;7.80;81.46
11011;BME280;5558;42.702;23.178;2024-03-25T08:18:34;92767.72;;;7.56;86.12
11011;BME280;5558;42.702;23.178;2024-03-25T08:21:00;92763.38;;;8.00;89.00
11011;BME280;5558;42.702;23.178;2024-03-25T08:23:27;92778.31;;;8.20;86.00
11011;BME280;5558;42.702;23.178;2024-03-25T08:25:53;92772.63;;;7.98;85.96
11011;BME280;5558;42.702;23.178;2024-03-25T08:28:18;92781.06;;;7.85;78.79
11011;BME280;5558;42.702;23.178;2024-03-25T08:30:44;92782.13;;;7.84;75.90
11011;BME280;5558;42.702;23.178;2024-03-25T08:33:10;92788.78;;;8.40;71.45
11011;BME280;5558;42.702;23.178;2024-03-25T08:35:36;92786.47;;;8.72;69.46
11011;BME280;5558;42.702;23.178;2024-03-25T08:38:03;92788.31;;;8.72;68.78
11011;BME280;5558;42.702;23.178;2024-03-25T08:40:30;92793.19;;;8.54;70.79
11011;BME280;5558;42.702;23.178;2024-03-25T08:42:56;92789.97;;;8.04;71.25
11011;BME280;5558;42.702;23.178;2024-03-25T08:45:22;92792.16;;;7.77;75.52
11011;BME280;5558;42.702;23.178;2024-03-25T08:47:48;92787.16;;;7.75;73.59
11011;BME280;5558;42.702;23.178;2024-03-25T08:50:13;92786.88;;;7.82;79.49
11011;BME280;5558;42.702;23.178;2024-03-25T08:52:39;92784.69;;;8.04;76.58
11011;BME280;5558;42.702;23.178;2024-03-25T08:55:06;92787.81;;;8.16;68.97
11011;BME280;5558;42.702;23.178;2024-03-25T08:57:33;92790.22;;;8.07;69.46
11011;BME280;5558;42.702;23.178;2024-03-25T08:59:59;92783.38;;;8.06;68.57
11011;BME280;5558;42.702;23.178;2024-03-25T09:02:24;92797.16;;;7.83;75.24
11011;BME280;5558;42.702;23.178;2024-03-25T09:04:50;92790.34;;;7.77;72.57
11011;BME280;5558;42.702;23.178;2024-03-25T09:07:17;92797.72;;;7.75;76.41
11011;BME280;5558;42.702;23.178;2024-03-25T09:09:42;92800.59;;;7.79;76.90
11011;BME280;5558;42.702;23.178;2024-03-25T09:12:33;92798.19;;;7.92;77.36
11011;BME280;5558;42.702;23.178;2024-03-25T09:14:59;92781.09;;;7.75;81.04
11011;BME280;5558;42.702;23.178;2024-03-25T09:17:25;92802.78;;;7.47;76.59
11011;BME280;5558;42.702;23.178;2024-03-25T09:19:50;92803.88;;;7.30;80.37
11011;BME280;5558;42.702;23.178;2024-03-25T09:22:16;92811.22;;;7.33;83.22
11011;BME280;5558;42.702;23.178;2024-03-25T09:24:42;92805.41;;;7.47;82.68
11011;BME280;5558;42.702;23.178;2024-03-25T09:27:08;92806.72;;;7.59;82.66
11011;BME280;5558;42.702;23.178;2024-03-25T09:29:35;92813.31;;;7.47;78.20
11011;BME280;5558;42.702;23.178;2024-03-25T09:32:01;92806.47;;;7.40;78.04
11011;BME280;5558;42.702;23.178;2024-03-25T09:34:26;92816.75;;;7.27;75.48
11011;BME280;5558;42.702;23.178;2024-03-25T09:36:52;92808.03;;;7.47;80.39
11011;BME280;5558;42.702;23.178;2024-03-25T09:39:18;92816.69;;;7.67;80.28
11011;BME280;5558;42.702;23.178;2024-03-25T09:41:44;92814.34;;;7.66;74.08
11011;BME280;5558;42.702;23.178;2024-03-25T09:44:10;92814.59;;;7.69;78.94
11011;BME280;5558;42.702;23.178;2024-03-25T09:46:37;92804.31;;;7.68;75.35
11011;BME280;5558;42.702;23.178;2024-03-25T09:49:03;92806.16;;;7.72;78.24
11011;BME280;5558;42.702;23.178;2024-03-25T09:51:29;92805.31;;;7.82;72.84
11011;BME280;5558;42.702;23.178;2024-03-25T09:53:55;92810.09;;;7.70;71.69
11011;BME280;5558;42.702;23.178;2024-03-25T09:56:20;92800.06;;;7.77;69.57
11011;BME280;5558;42.702;23.178;2024-03-25T09:58:46;92806.94;;;7.78;69.23
11011;BME280;5558;42.702;23.178;2024-03-25T10:01:12;92811.19;;;7.49;69.91
11011;BME280;5558;42.702;23.178;2024-03-25T10:03:39;92822.75;;;7.53;71.11
11011;BME280;5558;42.702;23.178;2024-03-25T10:06:05;92814.63;;;7.54;72.05
11011;BME280;5558;42.702;23.178;2024-03-25T10:08:31;92813.28;;;7.62;67.44
11011;BME280;5558;42.702;23.178;2024-03-25T10:10:57;92810.31;;;7.88;69.46
11011;BME280;5558;42.702;23.178;2024-03-25T10:13:23;92806.59;;;7.99;64.04
11011;BME280;5558;42.702;23.178;2024-03-25T10:15:49;92809.53;;;7.88;62.73
11011;BME280;5558;42.702;23.178;2024-03-25T10:18:14;92813.22;;;7.77;59.36
11011;BME280;5558;42.702;23.178;2024-03-25T10:20:48;92809.34;;;7.59;57.90
11011;BME280;5558;42.702;23.178;2024-03-25T10:23:14;92804.56;;;7.66;58.56
11011;BME280;5558;42.702;23.178;2024-03-25T10:25:40;92813.41;;;8.05;61.63
11011;BME280;5558;42.702;23.178;2024-03-25T10:28:05;92806.88;;;7.93;58.14
11011;BME280;5558;42.702;23.178;2024-03-25T10:30:31;92808.03;;;7.52;58.58
11011;BME280;5558;42.702;23.178;2024-03-25T10:32:58;92809.09;;;7.46;57.50
11011;BME280;5558;42.702;23.178;2024-03-25T10:35:26;92818.03;;;7.39;59.81
11011;BME280;5558;42.702;23.178;2024-03-25T10:37:55;92812.22;;;7.53;62.47
11011;BME280;5558;42.702;23.178;2024-03-25T10:40:23;92817.41;;;7.98;64.36
11011;BME280;5558;42.702;23.178;2024-03-25T10:42:51;92799.03;;;8.46;61.70
11011;BME280;5558;42.702;23.178;2024-03-25T10:45:17;92803.47;;;8.51;59.42
11011;BME280;5558;42.702;23.178;2024-03-25T10:47:43;92809.19;;;9.07;60.44
11011;BME280;5558;42.702;23.178;2024-03-25T10:50:10;92803.28;;;8.86;58.71
11011;BME280;5558;42.702;23.178;2024-03-25T10:52:38;92818.72;;;8.64;59.33
11011;BME280;5558;42.702;23.178;2024-03-25T10:55:07;92808.44;;;8.57;58.52
11011;BME280;5558;42.702;23.178;2024-03-25T10:57:34;92814.34;;;8.39;59.09
11011;BME280;5558;42.702;23.178;2024-03-25T11:00:01;92810.91;;;8.39;58.51
11011;BME280;5558;42.702;23.178;2024-03-25T11:02:29;92802.03;;;8.25;58.74
11011;BME280;5558;42.702;23.178;2024-03-25T11:04:56;92812.03;;;8.23;61.28
11011;BME280;5558;42.702;23.178;2024-03-25T11:07:31;92796.78;;;8.15;61.80
11011;BME280;5558;42.702;23.178;2024-03-25T11:10:03;92813.63;;;8.14;61.80
11011;BME280;5558;42.702;23.178;2024-03-25T11:12:34;92808.44;;;7.99;62.69
11011;BME280;5558;42.702;23.178;2024-03-25T11:15:01;92819.06;;;7.69;72.33
11011;BME280;5558;42.702;23.178;2024-03-25T11:17:27;92821.47;;;7.50;86.66
11011;BME280;5558;42.702;23.178;2024-03-25T11:19:53;92823.59;;;7.33;100.00
11011;BME280;5558;42.702;23.178;2024-03-25T11:22:24;92827.78;;;7.14;100.00
11011;BME280;5558;42.702;23.178;2024-03-25T11:24:50;92827.28;;;7.07;100.00
11011;BME280;5558;42.702;23.178;2024-03-25T11:27:21;92836.47;;;6.99;100.00
11011;BME280;5558;42.702;23.178;2024-03-25T11:29:49;92830.94;;;6.86;100.00
11011;BME280;5558;42.702;23.178;2024-03-25T11:32:15;92839.09;;;6.84;100.00
11011;BME280;5558;42.702;23.178;2024-03-25T11:34:49;92833.31;;;6.77;100.00
11011;BME280;5558;42.702;23.178;2024-03-25T11:37:16;92829.09;;;6.71;100.00
11011;BME280;5558;42.702;23.178;2024-03-25T11:39:41;92822.25;;;6.90;98.21
11011;BME280;5558;42.702;23.178;2024-03-25T11:42:08;92826.75;;;7.05;89.90
11011;BME280;5558;42.702;23.178;2024-03-25T11:44:36;92836.50;;;7.19;90.59
11011;BME280;5558;42.702;23.178;2024-03-25T11:47:04;92842.00;;;7.43;89.73
11011;BME280;5558;42.702;23.178;2024-03-25T11:49:30;92836.16;;;7.61;80.73
11011;BME280;5558;42.702;23.178;2024-03-25T11:51:58;92813.19;;;7.92;75.64
11011;BME280;5558;42.702;23.178;2024-03-25T11:54:27;92836.88;;;8.02;69.49
11011;BME280;5558;42.702;23.178;2024-03-25T11:56:54;92825.31;;;7.93;68.19
11011;BME280;5558;42.702;23.178;2024-03-25T11:59:20;92845.59;;;7.92;67.70
11011;BME280;5558;42.702;23.178;2024-03-25T12:01:46;92846.41;;;7.93;66.91
11011;BME280;5558;42.702;23.178;2024-03-25T12:04:17;92846.16;;;7.89;65.66
11011;BME280;5558;42.702;23.178;2024-03-25T12:06:43;92840.66;;;7.76;68.82
11011;BME280;5558;42.702;23.178;2024-03-25T12:09:10;92833.50;;;7.91;69.26
11011;BME280;5558;42.702;23.178;2024-03-25T12:11:54;92827.03;;;8.32;66.50
11011;BME280;5558;42.702;23.178;2024-03-25T12:14:21;92827.22;;;8.51;67.37
11011;BME280;5558;42.702;23.178;2024-03-25T12:16:47;92832.19;;;8.57;61.86
11011;BME280;5558;42.702;23.178;2024-03-25T12:19:15;92835.41;;;8.49;63.15
11011;BME280;5558;42.702;23.178;2024-03-25T12:21:41;92828.94;;;8.76;65.69
11011;BME280;5558;42.702;23.178;2024-03-25T12:24:07;92816.75;;;8.80;60.38
11011;BME280;5558;42.702;23.178;2024-03-25T12:26:33;92825.63;;;8.94;65.30
11011;BME280;5558;42.702;23.178;2024-03-25T12:28:59;92819.28;;;8.51;59.98
11011;BME280;5558;42.702;23.178;2024-03-25T12:31:25;92822.78;;;8.41;60.96
11011;BME280;5558;42.702;23.178;2024-03-25T12:33:51;92821.72;;;8.42;58.48
11011;BME280;5558;42.702;23.178;2024-03-25T12:36:20;92826.22;;;8.42;59.38
11011;BME280;5558;42.702;23.178;2024-03-25T12:38:53;92837.06;;;8.35;57.80
11011;BME280;5558;42.702;23.178;2024-03-25T12:41:22;92829.16;;;8.30;55.04
11011;BME280;5558;42.702;23.178;2024-03-25T12:43:49;92847.09;;;8.33;57.61
11011;BME280;5558;42.702;23.178;2024-03-25T12:46:15;92835.50;;;8.19;59.11
11011;BME280;5558;42.702;23.178;2024-03-25T12:48:41;92847.13;;;8.23;59.16
11011;BME280;5558;42.702;23.178;2024-03-25T12:51:12;92829.19;;;8.10;60.61
11011;BME280;5558;42.702;23.178;2024-03-25T12:53:40;92833.44;;;8.11;60.35
11011;BME280;5558;42.702;23.178;2024-03-25T12:56:06;92827.41;;;8.01;63.29
11011;BME280;5558;42.702;23.178;2024-03-25T12:58:32;92834.78;;;7.94;63.70
11011;BME280;5558;42.702;23.178;2024-03-25T13:00:58;92840.25;;;8.12;66.47
11011;BME280;5558;42.702;23.178;2024-03-25T13:03:23;92839.94;;;8.34;66.87